sensor_id;sensor_type;location;lat;lon;timestamp;pressure;altitude;pressure_sealevel;temperature;humidity
44481;BME280;30184;42.018;23.670;2023-03-15T00:02:20;90697.75;;;1.35;80.21
44481;BME280;30184;42.018;23.670;2023-03-15T00:04:51;90705.53;;;1.15;80.30
44481;BME280;30184;42.018;23.670;2023-03-15T00:07:21;90648.84;;;0.90;80.40
44481;BME280;30184;42.018;23.670;2023-03-15T00:09:52;90689.41;;;1.26;80.50
44481;BME280;30184;42.018;23.670;2023-03-15T00:12:22;90693.63;;;1.27;80.67
44481;BME280;30184;42.018;23.670;2023-03-15T00:14:51;90580.41;;;0.51;80.72
44481;BME280;30184;42.018;23.670;2023-03-15T00:17:21;90694.78;;;1.22;80.99
44481;BME280;30184;42.018;23.670;2023-03-15T00:19:51;90694.03;;;1.22;81.12
44481;BME280;30184;42.018;23.670;2023-03-15T00:22:21;90690.19;;;1.23;80.91
44481;BME280;30184;42.018;23.670;2023-03-15T00:24:50;90681.78;;;1.24;80.83
44481;BME280;30184;42.018;23.670;2023-03-15T00:27:19;90678.75;;;1.22;81.14
44481;BME280;30184;42.018;23.670;2023-03-15T00:29:48;90674.16;;;1.23;81.35
44481;BME280;30184;42.018;23.670;2023-03-15T00:32:20;90642.72;;;0.89;81.55
44481;BME280;30184;42.018;23.670;2023-03-15T00:34:49;90665.03;;;1.20;81.83
44481;BME280;30184;42.018;23.670;2023-03-15T00:37:22;90657.41;;;1.19;82.13
44481;BME280;30184;42.018;23.670;2023-03-15T00:39:52;90622.88;;;0.90;82.50
44481;BME280;30184;42.018;23.670;2023-03-15T00:42:22;90651.31;;;1.18;82.53
44481;BME280;30184;42.018;23.670;2023-03-15T00:44:54;90619.47;;;0.90;82.38
44481;BME280;30184;42.018;23.670;2023-03-15T00:47:24;90631.22;;;0.99;81.65
44481;BME280;30184;42.018;23.670;2023-03-15T00:49:53;90641.38;;;1.19;81.74
44481;BME280;30184;42.018;23.670;2023-03-15T00:52:24;90643.66;;;1.20;81.58
44481;BME280;30184;42.018;23.670;2023-03-15T00:54:54;90637.13;;;1.25;81.69
44481;BME280;30184;42.018;23.670;2023-03-15T00:57:23;90636.00;;;1.22;81.86
44481;BME280;30184;42.018;23.670;2023-03-15T00:59:54;90631.03;;;1.21;82.29
44481;BME280;30184;42.018;23.670;2023-03-15T01:02:26;90632.56;;;1.22;82.30
44481;BME280;30184;42.018;23.670;2023-03-15T01:04:56;90640.94;;;1.24;82.34
44481;BME280;30184;42.018;23.670;2023-03-15T01:07:27;90627.59;;;1.24;82.46
44481;BME280;30184;42.018;23.670;2023-03-15T01:09:56;90659.25;;;1.25;82.39
44481;BME280;30184;42.018;23.670;2023-03-15T01:12:26;90615.75;;;1.21;81.48
44481;BME280;30184;42.018;23.670;2023-03-15T01:14:56;90621.88;;;1.22;81.72
44481;BME280;30184;42.018;23.670;2023-03-15T01:17:25;90602.00;;;1.23;81.48
44481;BME280;30184;42.018;23.670;2023-03-15T01:19:55;90603.53;;;1.24;81.51
44481;BME280;30184;42.018;23.670;2023-03-15T01:22:27;90603.16;;;1.25;81.63
44481;BME280;30184;42.018;23.670;2023-03-15T01:24:56;90602.38;;;1.25;81.64
44481;BME280;30184;42.018;23.670;2023-03-15T01:27:25;90589.34;;;1.30;81.61
44481;BME280;30184;42.018;23.670;2023-03-15T01:29:58;90580.53;;;1.33;81.42
44481;BME280;30184;42.018;23.670;2023-03-15T01:32:28;90576.72;;;1.34;81.19
44481;BME280;30184;42.018;23.670;2023-03-15T01:34:57;90528.56;;;1.00;80.97
44481;BME280;30184;42.018;23.670;2023-03-15T01:37:28;90562.28;;;1.28;81.14
44481;BME280;30184;42.018;23.670;2023-03-15T01:39:57;90583.88;;;1.44;81.24
44481;BME280;30184;42.018;23.670;2023-03-15T01:42:27;90580.44;;;1.47;81.64
44481;BME280;30184;42.018;23.670;2023-03-15T01:44:58;90576.56;;;1.52;81.71
44481;BME280;30184;42.018;23.670;2023-03-15T01:47:28;90554.88;;;1.43;81.62
44481;BME280;30184;42.018;23.670;2023-03-15T01:50:03;90574.94;;;1.58;81.87
44481;BME280;30184;42.018;23.670;2023-03-15T01:52:37;90573.41;;;1.61;81.61
44481;BME280;30184;42.018;23.670;2023-03-15T01:55:12;90566.88;;;1.65;81.54
44481;BME280;30184;42.018;23.670;2023-03-15T01:57:59;90485.72;;;1.11;79.99
44481;BME280;30184;42.018;23.670;2023-03-15T02:00:30;90537.25;;;1.49;79.88
44481;BME280;30184;42.018;23.670;2023-03-15T02:03:11;90562.63;;;1.68;79.81
44481;BME280;30184;42.018;23.670;2023-03-15T02:05:46;90551.53;;;1.69;80.45
44481;BME280;30184;42.018;23.670;2023-03-15T02:08:29;90558.03;;;1.68;81.06
44481;BME280;30184;42.018;23.670;2023-03-15T02:11:01;90463.22;;;1.08;81.05
44481;BME280;30184;42.018;23.670;2023-03-15T02:13:34;90547.78;;;1.67;80.27
44481;BME280;30184;42.018;23.670;2023-03-15T02:16:09;90542.94;;;1.55;80.18
44481;BME280;30184;42.018;23.670;2023-03-15T02:18:51;90518.81;;;1.58;80.09
44481;BME280;30184;42.018;23.670;2023-03-15T02:21:35;90508.94;;;1.55;80.38
44481;BME280;30184;42.018;23.670;2023-03-15T02:24:18;90369.72;;;0.37;80.35
44481;BME280;30184;42.018;23.670;2023-03-15T02:26:55;90530.31;;;1.55;80.44
44481;BME280;30184;42.018;23.670;2023-03-15T02:29:27;90513.88;;;1.57;80.48
44481;BME280;30184;42.018;23.670;2023-03-15T02:31:57;90443.72;;;1.11;80.28
44481;BME280;30184;42.018;23.670;2023-03-15T02:34:26;90505.03;;;1.60;80.44
44481;BME280;30184;42.018;23.670;2023-03-15T02:36:56;90509.63;;;1.59;80.29
44481;BME280;30184;42.018;23.670;2023-03-15T02:39:27;90509.59;;;1.63;80.25
44481;BME280;30184;42.018;23.670;2023-03-15T02:41:57;90513.41;;;1.65;80.28
44481;BME280;30184;42.018;23.670;2023-03-15T02:44:32;90509.56;;;1.66;80.31
44481;BME280;30184;42.018;23.670;2023-03-15T02:47:04;90535.50;;;1.69;80.20
44481;BME280;30184;42.018;23.670;2023-03-15T02:49:38;90509.88;;;1.72;80.02
44481;BME280;30184;42.018;23.670;2023-03-15T02:52:10;90500.31;;;1.74;79.97
44481;BME280;30184;42.018;23.670;2023-03-15T02:54:40;90488.13;;;1.70;79.91
44481;BME280;30184;42.018;23.670;2023-03-15T02:57:12;90486.47;;;1.79;79.88
44481;BME280;30184;42.018;23.670;2023-03-15T02:59:44;90485.31;;;1.80;80.06
44481;BME280;30184;42.018;23.670;2023-03-15T03:02:18;90493.34;;;1.80;80.29
44481;BME280;30184;42.018;23.670;2023-03-15T03:04:47;90489.50;;;1.81;80.29
44481;BME280;30184;42.018;23.670;2023-03-15T03:07:19;90480.09;;;1.70;80.40
44481;BME280;30184;42.018;23.670;2023-03-15T03:09:53;90471.16;;;1.83;80.39
44481;BME280;30184;42.018;23.670;2023-03-15T03:12:22;90475.34;;;1.84;80.59
44481;BME280;30184;42.018;23.670;2023-03-15T03:14:53;90479.50;;;1.85;80.37
44481;BME280;30184;42.018;23.670;2023-03-15T03:17:24;90483.50;;;1.74;80.44
44481;BME280;30184;42.018;23.670;2023-03-15T03:19:53;90393.69;;;1.16;80.29
44481;BME280;30184;42.018;23.670;2023-03-15T03:22:31;90487.91;;;1.87;80.50
44481;BME280;30184;42.018;23.670;2023-03-15T03:25:00;90460.34;;;1.91;80.49
44481;BME280;30184;42.018;23.670;2023-03-15T03:27:30;90454.22;;;1.94;80.47
44481;BME280;30184;42.018;23.670;2023-03-15T03:30:09;90450.53;;;1.84;80.36
44481;BME280;30184;42.018;23.670;2023-03-15T03:32:43;90317.97;;;0.99;80.66
44481;BME280;30184;42.018;23.670;2023-03-15T03:35:13;90447.72;;;1.95;80.75
44481;BME280;30184;42.018;23.670;2023-03-15T03:37:43;90443.84;;;1.96;80.92
44481;BME280;30184;42.018;23.670;2023-03-15T03:40:18;90446.53;;;1.96;80.88
44481;BME280;30184;42.018;23.670;2023-03-15T03:42:48;90465.25;;;1.96;80.51
44481;BME280;30184;42.018;23.670;2023-03-15T03:45:20;90384.78;;;1.56;80.16
44481;BME280;30184;42.018;23.670;2023-03-15T03:47:53;90454.22;;;1.94;80.08
44481;BME280;30184;42.018;23.670;2023-03-15T03:50:22;90451.94;;;1.92;80.03
44481;BME280;30184;42.018;23.670;2023-03-15T03:52:52;90454.28;;;1.86;80.05
44481;BME280;30184;42.018;23.670;2023-03-15T03:55:26;90447.03;;;1.87;80.04
44481;BME280;30184;42.018;23.670;2023-03-15T03:57:55;90453.19;;;1.84;80.54
44481;BME280;30184;42.018;23.670;2023-03-15T04:00:42;90408.63;;;1.43;81.26
44481;BME280;30184;42.018;23.670;2023-03-15T04:03:12;90430.91;;;1.64;81.71
44481;BME280;30184;42.018;23.670;2023-03-15T04:05:46;90441.53;;;1.67;82.18
44481;BME280;30184;42.018;23.670;2023-03-15T04:08:19;90462.25;;;1.63;82.26
44481;BME280;30184;42.018;23.670;2023-03-15T04:10:49;90440.13;;;1.59;82.31
44481;BME280;30184;42.018;23.670;2023-03-15T04:13:21;90433.72;;;1.53;82.18
44481;BME280;30184;42.018;23.670;2023-03-15T04:15:53;90390.94;;;1.23;82.33
44481;BME280;30184;42.018;23.670;2023-03-15T04:18:28;90429.25;;;1.43;82.40
44481;BME280;30184;42.018;23.670;2023-03-15T04:20:57;90436.19;;;1.37;82.36
44481;BME280;30184;42.018;23.670;2023-03-15T04:23:28;90430.53;;;1.31;82.54
44481;BME280;30184;42.018;23.670;2023-03-15T04:26:13;90391.97;;;0.98;82.53
44481;BME280;30184;42.018;23.670;2023-03-15T04:29:05;90422.72;;;1.13;82.91
44481;BME280;30184;42.018;23.670;2023-03-15T04:31:56;90440.25;;;1.15;83.05
44481;BME280;30184;42.018;23.670;2023-03-15T04:34:51;90441.03;;;1.11;83.36
44481;BME280;30184;42.018;23.670;2023-03-15T04:37:37;90441.47;;;1.10;83.85
44481;BME280;30184;42.018;23.670;2023-03-15T04:40:17;90425.84;;;1.08;84.16
44481;BME280;30184;42.018;23.670;2023-03-15T04:42:54;90361.25;;;0.46;84.25
44481;BME280;30184;42.018;23.670;2023-03-15T04:45:36;90411.31;;;1.09;84.53
44481;BME280;30184;42.018;23.670;2023-03-15T04:48:42;90410.13;;;1.14;84.65
44481;BME280;30184;42.018;23.670;2023-03-15T04:51:46;90390.47;;;0.97;84.80
44481;BME280;30184;42.018;23.670;2023-03-15T04:54:39;90413.47;;;1.22;84.91
44481;BME280;30184;42.018;23.670;2023-03-15T04:57:11;90463.00;;;1.30;85.01
44481;BME280;30184;42.018;23.670;2023-03-15T04:59:55;90374.53;;;1.21;84.51
44481;BME280;30184;42.018;23.670;2023-03-15T05:02:45;90401.41;;;1.40;84.52
44481;BME280;30184;42.018;23.670;2023-03-15T05:05:44;90399.81;;;1.46;84.62
44481;BME280;30184;42.018;23.670;2023-03-15T05:08:46;90402.78;;;1.52;84.59
44481;BME280;30184;42.018;23.670;2023-03-15T05:11:16;90390.28;;;1.45;84.64
44481;BME280;30184;42.018;23.670;2023-03-15T05:14:03;90397.34;;;1.59;84.59
44481;BME280;30184;42.018;23.670;2023-03-15T05:16:33;90406.44;;;1.65;84.42
44481;BME280;30184;42.018;23.670;2023-03-15T05:19:18;90339.41;;;1.22;84.15
44481;BME280;30184;42.018;23.670;2023-03-15T05:22:21;90355.47;;;1.49;83.86
44481;BME280;30184;42.018;23.670;2023-03-15T05:25:09;90399.13;;;1.69;83.74
44481;BME280;30184;42.018;23.670;2023-03-15T05:28:11;90398.13;;;1.86;83.26
44481;BME280;30184;42.018;23.670;2023-03-15T05:31:07;90402.22;;;1.95;83.10
44481;BME280;30184;42.018;23.670;2023-03-15T05:33:56;90396.00;;;2.01;83.02
44481;BME280;30184;42.018;23.670;2023-03-15T05:36:51;90393.19;;;2.12;82.88
44481;BME280;30184;42.018;23.670;2023-03-15T05:39:40;90385.09;;;2.15;82.68
44481;BME280;30184;42.018;23.670;2023-03-15T05:42:17;90383.06;;;2.23;82.32
44481;BME280;30184;42.018;23.670;2023-03-15T05:45:11;90384.13;;;2.29;81.64
44481;BME280;30184;42.018;23.670;2023-03-15T05:47:55;90391.28;;;2.36;81.43
44481;BME280;30184;42.018;23.670;2023-03-15T05:50:33;90393.81;;;2.43;81.43
44481;BME280;30184;42.018;23.670;2023-03-15T05:53:30;90386.09;;;2.48;80.78
44481;BME280;30184;42.018;23.670;2023-03-15T05:56:33;90391.34;;;2.55;80.33
44481;BME280;30184;42.018;23.670;2023-03-15T05:59:22;90399.25;;;2.62;80.38
44481;BME280;30184;42.018;23.670;2023-03-15T06:02:27;90396.41;;;2.73;79.86
44481;BME280;30184;42.018;23.670;2023-03-15T06:05:15;90405.41;;;2.83;79.50
44481;BME280;30184;42.018;23.670;2023-03-15T06:07:45;90409.47;;;2.91;79.18
44481;BME280;30184;42.018;23.670;2023-03-15T06:10:16;90405.84;;;3.01;79.12
44481;BME280;30184;42.018;23.670;2023-03-15T06:12:47;90412.59;;;3.09;78.41
44481;BME280;30184;42.018;23.670;2023-03-15T06:15:17;90404.34;;;3.20;78.20
44481;BME280;30184;42.018;23.670;2023-03-15T06:17:48;90428.69;;;3.29;77.64
44481;BME280;30184;42.018;23.670;2023-03-15T06:20:18;90405.88;;;3.41;77.29
44481;BME280;30184;42.018;23.670;2023-03-15T06:22:47;90403.06;;;3.48;76.48
44481;BME280;30184;42.018;23.670;2023-03-15T06:25:33;90462.25;;;3.57;76.12
44481;BME280;30184;42.018;23.670;2023-03-15T06:28:04;90418.03;;;3.65;75.81
44481;BME280;30184;42.018;23.670;2023-03-15T06:30:35;90421.53;;;3.62;75.39
44481;BME280;30184;42.018;23.670;2023-03-15T06:33:05;90417.41;;;3.77;75.48
44481;BME280;30184;42.018;23.670;2023-03-15T06:35:35;90409.47;;;3.90;75.37
44481;BME280;30184;42.018;23.670;2023-03-15T06:38:04;90413.03;;;4.03;74.89
44481;BME280;30184;42.018;23.670;2023-03-15T06:40:34;90414.47;;;4.07;74.77
44481;BME280;30184;42.018;23.670;2023-03-15T06:43:05;90325.16;;;3.71;73.57
44481;BME280;30184;42.018;23.670;2023-03-15T06:45:35;90400.41;;;4.36;73.26
44481;BME280;30184;42.018;23.670;2023-03-15T06:48:05;90391.25;;;4.49;72.87
44481;BME280;30184;42.018;23.670;2023-03-15T06:50:35;90389.84;;;4.61;72.44
44481;BME280;30184;42.018;23.670;2023-03-15T06:53:13;90326.56;;;4.44;71.55
44481;BME280;30184;42.018;23.670;2023-03-15T06:55:45;90393.16;;;4.98;71.12
44481;BME280;30184;42.018;23.670;2023-03-15T06:58:18;90376.22;;;5.13;70.53
44481;BME280;30184;42.018;23.670;2023-03-15T07:00:49;90359.41;;;5.38;70.64
44481;BME280;30184;42.018;23.670;2023-03-15T07:03:19;90372.28;;;5.59;69.64
44481;BME280;30184;42.018;23.670;2023-03-15T07:05:48;90372.56;;;5.78;70.03
44481;BME280;30184;42.018;23.670;2023-03-15T07:08:22;90364.72;;;5.83;68.75
44481;BME280;30184;42.018;23.670;2023-03-15T07:10:51;90367.66;;;5.89;68.80
44481;BME280;30184;42.018;23.670;2023-03-15T07:13:22;90367.00;;;5.97;68.83
44481;BME280;30184;42.018;23.670;2023-03-15T07:15:51;90324.72;;;5.56;67.89
44481;BME280;30184;42.018;23.670;2023-03-15T07:18:21;90362.47;;;5.94;68.62
44481;BME280;30184;42.018;23.670;2023-03-15T07:20:58;90360.66;;;6.04;68.66
44481;BME280;30184;42.018;23.670;2023-03-15T07:23:27;90318.06;;;5.86;67.84
44481;BME280;30184;42.018;23.670;2023-03-15T07:25:57;90348.72;;;6.18;68.99
44481;BME280;30184;42.018;23.670;2023-03-15T07:28:28;90349.78;;;6.20;68.31
44481;BME280;30184;42.018;23.670;2023-03-15T07:30:59;90318.84;;;6.12;67.94
44481;BME280;30184;42.018;23.670;2023-03-15T07:33:30;90330.34;;;6.51;67.58
44481;BME280;30184;42.018;23.670;2023-03-15T07:36:00;90319.63;;;6.85;66.58
44481;BME280;30184;42.018;23.670;2023-03-15T07:38:31;90314.13;;;7.10;65.50
44481;BME280;30184;42.018;23.670;2023-03-15T07:41:03;90307.53;;;7.33;64.58
44481;BME280;30184;42.018;23.670;2023-03-15T07:43:34;90239.84;;;7.19;63.59
44481;BME280;30184;42.018;23.670;2023-03-15T07:46:13;90302.53;;;7.66;62.28
44481;BME280;30184;42.018;23.670;2023-03-15T07:48:43;90301.72;;;7.57;62.61
44481;BME280;30184;42.018;23.670;2023-03-15T07:51:13;90301.22;;;7.49;62.70
44481;BME280;30184;42.018;23.670;2023-03-15T07:53:42;90276.50;;;7.51;63.00
44481;BME280;30184;42.018;23.670;2023-03-15T07:56:11;90283.75;;;7.63;62.89
44481;BME280;30184;42.018;23.670;2023-03-15T07:58:42;90281.47;;;7.61;62.87
44481;BME280;30184;42.018;23.670;2023-03-15T08:01:11;90290.25;;;7.74;63.26
44481;BME280;30184;42.018;23.670;2023-03-15T08:03:41;90233.59;;;7.53;62.10
44481;BME280;30184;42.018;23.670;2023-03-15T08:06:10;90283.59;;;7.97;61.41
44481;BME280;30184;42.018;23.670;2023-03-15T08:08:40;90280.25;;;8.15;61.45
44481;BME280;30184;42.018;23.670;2023-03-15T08:11:09;90295.97;;;8.38;61.38
44481;BME280;30184;42.018;23.670;2023-03-15T08:13:38;90264.94;;;8.61;60.73
44481;BME280;30184;42.018;23.670;2023-03-15T08:16:10;90248.72;;;8.79;60.08
44481;BME280;30184;42.018;23.670;2023-03-15T08:18:39;90266.63;;;9.04;58.87
44481;BME280;30184;42.018;23.670;2023-03-15T08:21:08;90270.19;;;9.38;59.24
44481;BME280;30184;42.018;23.670;2023-03-15T08:23:37;90272.59;;;9.54;55.84
44481;BME280;30184;42.018;23.670;2023-03-15T08:26:07;90262.06;;;9.56;54.12
44481;BME280;30184;42.018;23.670;2023-03-15T08:28:36;90260.72;;;9.60;54.01
44481;BME280;30184;42.018;23.670;2023-03-15T08:31:06;90270.34;;;9.61;52.66
44481;BME280;30184;42.018;23.670;2023-03-15T08:33:36;90263.41;;;9.60;51.82
44481;BME280;30184;42.018;23.670;2023-03-15T08:36:06;90275.88;;;9.67;51.60
44481;BME280;30184;42.018;23.670;2023-03-15T08:38:36;90273.16;;;9.76;51.41
44481;BME280;30184;42.018;23.670;2023-03-15T08:41:06;90264.41;;;9.90;50.22
44481;BME280;30184;42.018;23.670;2023-03-15T08:43:35;90263.19;;;9.91;51.12
44481;BME280;30184;42.018;23.670;2023-03-15T08:46:04;90278.06;;;9.96;51.20
44481;BME280;30184;42.018;23.670;2023-03-15T08:48:34;90262.25;;;9.94;51.56
44481;BME280;30184;42.018;23.670;2023-03-15T08:51:06;90263.31;;;9.97;51.66
44481;BME280;30184;42.018;23.670;2023-03-15T08:53:35;90205.50;;;9.58;52.55
44481;BME280;30184;42.018;23.670;2023-03-15T08:56:05;90261.81;;;9.96;51.82
44481;BME280;30184;42.018;23.670;2023-03-15T08:58:34;90255.78;;;9.92;52.33
44481;BME280;30184;42.018;23.670;2023-03-15T09:01:04;90256.41;;;9.87;51.92
44481;BME280;30184;42.018;23.670;2023-03-15T09:03:33;90245.13;;;9.88;51.08
44481;BME280;30184;42.018;23.670;2023-03-15T09:06:02;90259.88;;;9.87;51.33
44481;BME280;30184;42.018;23.670;2023-03-15T09:08:34;90257.19;;;9.87;51.50
44481;BME280;30184;42.018;23.670;2023-03-15T09:11:03;90250.25;;;9.86;50.76
44481;BME280;30184;42.018;23.670;2023-03-15T09:13:33;90253.69;;;9.96;50.14
44481;BME280;30184;42.018;23.670;2023-03-15T09:16:02;90250.50;;;10.06;49.87
44481;BME280;30184;42.018;23.670;2023-03-15T09:18:31;90247.00;;;10.15;50.06
44481;BME280;30184;42.018;23.670;2023-03-15T09:21:01;90251.81;;;10.20;49.28
44481;BME280;30184;42.018;23.670;2023-03-15T09:23:30;90233.50;;;10.39;49.45
44481;BME280;30184;42.018;23.670;2023-03-15T09:26:01;90230.16;;;10.44;47.93
44481;BME280;30184;42.018;23.670;2023-03-15T09:28:30;90250.09;;;10.32;48.20
44481;BME280;30184;42.018;23.670;2023-03-15T09:31:03;90257.97;;;10.21;48.05
44481;BME280;30184;42.018;23.670;2023-03-15T09:33:32;90239.72;;;10.30;47.86
44481;BME280;30184;42.018;23.670;2023-03-15T09:36:02;90240.34;;;10.25;46.80
44481;BME280;30184;42.018;23.670;2023-03-15T09:38:32;90250.16;;;10.23;47.98
44481;BME280;30184;42.018;23.670;2023-03-15T09:41:03;90250.31;;;10.19;46.78
44481;BME280;30184;42.018;23.670;2023-03-15T09:44:07;90234.28;;;10.30;46.54
44481;BME280;30184;42.018;23.670;2023-03-15T09:46:40;90255.31;;;10.44;47.18
44481;BME280;30184;42.018;23.670;2023-03-15T09:49:15;90243.09;;;10.49;47.11
44481;BME280;30184;42.018;23.670;2023-03-15T09:51:52;90242.22;;;10.67;45.60
44481;BME280;30184;42.018;23.670;2023-03-15T09:54:27;90242.47;;;10.78;45.64
44481;BME280;30184;42.018;23.670;2023-03-15T09:57:03;90222.94;;;10.41;44.63
44481;BME280;30184;42.018;23.670;2023-03-15T09:59:40;90229.31;;;10.29;45.15
44481;BME280;30184;42.018;23.670;2023-03-15T10:02:17;90234.72;;;10.38;45.05
44481;BME280;30184;42.018;23.670;2023-03-15T10:04:49;90236.84;;;10.34;45.10
44481;BME280;30184;42.018;23.670;2023-03-15T10:07:22;90250.44;;;10.25;45.34
44481;BME280;30184;42.018;23.670;2023-03-15T10:09:52;90257.56;;;10.04;46.13
44481;BME280;30184;42.018;23.670;2023-03-15T10:12:29;90254.59;;;9.93;46.83
44481;BME280;30184;42.018;23.670;2023-03-15T10:15:15;90308.78;;;9.93;46.79
44481;BME280;30184;42.018;23.670;2023-03-15T10:18:03;90259.59;;;9.85;47.68
44481;BME280;30184;42.018;23.670;2023-03-15T10:20:39;90268.34;;;9.80;47.03
44481;BME280;30184;42.018;23.670;2023-03-15T10:23:13;90281.41;;;9.91;46.92
44481;BME280;30184;42.018;23.670;2023-03-15T10:25:45;90200.19;;;9.03;46.79
44481;BME280;30184;42.018;23.670;2023-03-15T10:28:22;90254.88;;;9.34;45.88
44481;BME280;30184;42.018;23.670;2023-03-15T10:30:52;90302.06;;;9.79;45.29
44481;BME280;30184;42.018;23.670;2023-03-15T10:33:27;90294.69;;;9.80;45.27
44481;BME280;30184;42.018;23.670;2023-03-15T10:35:57;90257.56;;;9.53;45.13
44481;BME280;30184;42.018;23.670;2023-03-15T10:38:37;90260.53;;;9.64;45.49
44481;BME280;30184;42.018;23.670;2023-03-15T10:41:10;90273.03;;;9.70;46.58
44481;BME280;30184;42.018;23.670;2023-03-15T10:43:54;90265.94;;;9.64;45.21
44481;BME280;30184;42.018;23.670;2023-03-15T10:46:25;90212.94;;;9.21;44.84
44481;BME280;30184;42.018;23.670;2023-03-15T10:48:56;90262.03;;;9.65;44.78
44481;BME280;30184;42.018;23.670;2023-03-15T10:51:28;90268.97;;;9.57;43.95
44481;BME280;30184;42.018;23.670;2023-03-15T10:53:59;90266.13;;;9.60;44.29
44481;BME280;30184;42.018;23.670;2023-03-15T10:56:33;90261.47;;;9.52;44.31
44481;BME280;30184;42.018;23.670;2023-03-15T10:59:14;90275.00;;;9.52;44.44
44481;BME280;30184;42.018;23.670;2023-03-15T11:01:46;90253.38;;;9.33;43.63
44481;BME280;30184;42.018;23.670;2023-03-15T11:04:18;90261.94;;;9.41;44.41
44481;BME280;30184;42.018;23.670;2023-03-15T11:06:50;90275.75;;;9.52;44.85
44481;BME280;30184;42.018;23.670;2023-03-15T11:09:38;90246.88;;;9.58;43.97
44481;BME280;30184;42.018;23.670;2023-03-15T11:12:08;90249.06;;;9.78;43.81
44481;BME280;30184;42.018;23.670;2023-03-15T11:14:42;90242.25;;;9.92;43.99
44481;BME280;30184;42.018;23.670;2023-03-15T11:17:16;90241.44;;;10.09;43.95
44481;BME280;30184;42.018;23.670;2023-03-15T11:19:55;90218.88;;;10.03;43.81
44481;BME280;30184;42.018;23.670;2023-03-15T11:22:26;90232.63;;;10.33;43.60
44481;BME280;30184;42.018;23.670;2023-03-15T11:24:55;90233.78;;;10.41;42.99
44481;BME280;30184;42.018;23.670;2023-03-15T11:27:27;90231.09;;;10.65;43.11
44481;BME280;30184;42.018;23.670;2023-03-15T11:30:00;90222.22;;;10.64;43.11
44481;BME280;30184;42.018;23.670;2023-03-15T11:32:34;90229.25;;;10.71;43.58
44481;BME280;30184;42.018;23.670;2023-03-15T11:35:05;90223.06;;;10.70;43.18
44481;BME280;30184;42.018;23.670;2023-03-15T11:37:38;90167.03;;;10.20;43.37
44481;BME280;30184;42.018;23.670;2023-03-15T11:40:14;90215.59;;;10.65;43.77
44481;BME280;30184;42.018;23.670;2023-03-15T11:42:49;90193.56;;;10.87;43.60
44481;BME280;30184;42.018;23.670;2023-03-15T11:45:30;90195.66;;;11.07;42.14
44481;BME280;30184;42.018;23.670;2023-03-15T11:48:24;90203.19;;;11.12;41.59
44481;BME280;30184;42.018;23.670;2023-03-15T11:50:56;90203.81;;;11.07;41.90
44481;BME280;30184;42.018;23.670;2023-03-15T11:53:30;90145.75;;;10.90;42.77
44481;BME280;30184;42.018;23.670;2023-03-15T11:56:19;90192.41;;;11.32;42.03
44481;BME280;30184;42.018;23.670;2023-03-15T11:59:01;90182.94;;;11.13;41.84
44481;BME280;30184;42.018;23.670;2023-03-15T12:01:33;90126.75;;;10.90;42.55
44481;BME280;30184;42.018;23.670;2023-03-15T12:07:29;90209.34;;;11.12;42.46
44481;BME280;30184;42.018;23.670;2023-03-15T12:10:18;90185.72;;;11.04;43.22
44481;BME280;30184;42.018;23.670;2023-03-15T12:12:56;90116.38;;;10.50;42.75
44481;BME280;30184;42.018;23.670;2023-03-15T12:15:47;90157.66;;;10.68;43.57
44481;BME280;30184;42.018;23.670;2023-03-15T12:21:07;90179.53;;;10.89;43.72
44481;BME280;30184;42.018;23.670;2023-03-15T12:23:41;90181.41;;;10.97;42.97
44481;BME280;30184;42.018;23.670;2023-03-15T12:26:23;90172.66;;;11.02;42.85
44481;BME280;30184;42.018;23.670;2023-03-15T12:29:04;90158.25;;;11.11;42.96
44481;BME280;30184;42.018;23.670;2023-03-15T12:31:47;90140.28;;;11.28;42.64
44481;BME280;30184;42.018;23.670;2023-03-15T12:34:34;90151.69;;;11.62;42.70
44481;BME280;30184;42.018;23.670;2023-03-15T12:37:07;90147.56;;;11.81;41.95
44481;BME280;30184;42.018;23.670;2023-03-15T12:39:40;90145.69;;;11.87;42.46
44481;BME280;30184;42.018;23.670;2023-03-15T12:45:33;90142.84;;;11.96;41.70
44481;BME280;30184;42.018;23.670;2023-03-15T12:48:28;90148.81;;;12.15;41.49
44481;BME280;30184;42.018;23.670;2023-03-15T12:51:09;90152.38;;;12.21;41.39
44481;BME280;30184;42.018;23.670;2023-03-15T12:53:44;90137.22;;;12.34;41.44
44481;BME280;30184;42.018;23.670;2023-03-15T12:56:37;90146.94;;;12.61;40.99
44481;BME280;30184;42.018;23.670;2023-03-15T12:59:18;90145.13;;;12.73;40.54
44481;BME280;30184;42.018;23.670;2023-03-15T13:01:49;90136.34;;;12.84;41.31
44481;BME280;30184;42.018;23.670;2023-03-15T13:04:19;90128.31;;;12.75;39.82
44481;BME280;30184;42.018;23.670;2023-03-15T13:07:12;90129.00;;;12.69;40.18
44481;BME280;30184;42.018;23.670;2023-03-15T13:10:04;90017.44;;;12.03;41.32
44481;BME280;30184;42.018;23.670;2023-03-15T13:12:44;90130.72;;;12.87;40.61
44481;BME280;30184;42.018;23.670;2023-03-15T13:15:18;90124.28;;;12.90;41.18
44481;BME280;30184;42.018;23.670;2023-03-15T13:17:50;90113.88;;;12.89;41.18
44481;BME280;30184;42.018;23.670;2023-03-15T13:20:41;90078.38;;;12.78;39.82
44481;BME280;30184;42.018;23.670;2023-03-15T13:23:19;90099.00;;;12.84;39.95
44481;BME280;30184;42.018;23.670;2023-03-15T13:26:02;90097.72;;;12.59;40.29
44481;BME280;30184;42.018;23.670;2023-03-15T13:28:38;90107.09;;;12.38;40.65
44481;BME280;30184;42.018;23.670;2023-03-15T13:31:16;90107.16;;;12.23;41.29
44481;BME280;30184;42.018;23.670;2023-03-15T13:33:48;90094.47;;;12.00;41.73
44481;BME280;30184;42.018;23.670;2023-03-15T13:36:18;90101.41;;;12.01;41.78
44481;BME280;30184;42.018;23.670;2023-03-15T13:38:53;90110.22;;;11.96;42.59
44481;BME280;30184;42.018;23.670;2023-03-15T13:41:24;90115.00;;;12.01;42.47
44481;BME280;30184;42.018;23.670;2023-03-15T13:43:56;90125.78;;;11.95;43.27
44481;BME280;30184;42.018;23.670;2023-03-15T13:46:28;90144.47;;;11.88;42.39
44481;BME280;30184;42.018;23.670;2023-03-15T13:48:59;90118.72;;;11.83;43.10